EDDR/SCN METAR and TAF weather

Enter ICAO airport designator
Station Type Date Time Source
EDDR METAR 2022/05/25 00:50 UTC NOAA

EDDR 250050Z AUTO 14001KT CAVOK 08/07 Q1014


Station Type Date Time Source
EDDR Decoded METAR 2022/05/25 00:50 UTC NOAA

Saarbruecken / Ensheim, Germany (EDDR) 49-13N 007-07E 320M
May 24, 2022 - 08:50 PM EDT / 2022.05.25 0050 UTC
Wind: from the SE (140 degrees) at 1 MPH (1 KT):0
Visibility: greater than 7 mile(s):0
Temperature: 46 F (8 C)
Dew Point: 44 F (7 C)
Relative Humidity: 93%
Pressure (altimeter): 29.94 in. Hg (1014 hPa)
ob: EDDR 250050Z AUTO 14001KT CAVOK 08/07 Q1014
cycle: 1

Station Type Date Time Source
EDDR TAF 2022/05/24 18:56 UTC NOAA

TAF EDDR 241700Z 2418/2518 26008KT 9999 SCT040 PROB30
TEMPO 2418/2421 SHRA BKN040CB
BECMG 2418/2420 24003KT
BECMG 2508/2510 26010KT

Example: see airport list